Time;durP1;ratioP1;P1;durP2;ratioP2;P2;SDS_P1;SDS_P2;PMS_P1;PMS_P2;Temp;Humidity;BMP_temperature;BMP_pressure;BME280_temperature;BME280_humidity;BME280_pressure;Samples;Min_cycle;Max_cycle;Signal;HPM_P1;HPM_P2
2023/03/28 00:02:25;;;;;;;4.68;1.80;;;2.20;98.20;;;;;;5049746;28;20440;-72
2023/03/28 00:04:52;;;;;;;6.35;2.00;;;2.20;98.00;;;;;;5049577;28;20829;-71
2023/03/28 00:07:20;;;;;;;7.40;2.00;;;2.20;97.90;;;;;;5042289;28;20451;-73
2023/03/28 00:09:49;;;;;;;8.35;2.25;;;2.20;97.90;;;;;;5050227;28;20848;-73
2023/03/28 00:12:17;;;;;;;6.55;2.00;;;2.20;97.80;;;;;;5049170;28;20737;-72
2023/03/28 00:14:45;;;;;;;7.00;2.42;;;2.20;97.90;;;;;;5050377;28;20417;-73
2023/03/28 00:17:12;;;;;;;6.25;2.70;;;2.30;98.00;;;;;;5049517;28;20529;-72
2023/03/28 00:19:39;;;;;;;7.28;2.38;;;2.20;98.00;;;;;;5049468;28;20432;-72
2023/03/28 00:22:07;;;;;;;5.90;2.33;;;2.30;98.10;;;;;;5050490;28;20425;-71
2023/03/28 00:24:37;;;;;;;6.65;2.20;;;2.30;98.00;;;;;;5052246;28;20760;-71
2023/03/28 00:27:05;;;;;;;7.67;2.20;;;2.30;98.00;;;;;;5053782;28;20518;-71
2023/03/28 00:29:34;;;;;;;5.50;2.40;;;2.20;98.00;;;;;;5047276;28;20433;-71
2023/03/28 00:32:01;;;;;;;7.50;2.97;;;2.20;98.10;;;;;;5042682;28;20511;-73
2023/03/28 00:34:28;;;;;;;8.35;2.10;;;2.20;98.10;;;;;;5054961;28;20927;-74
2023/03/28 00:36:54;;;;;;;5.70;2.47;;;2.20;98.20;;;;;;5049488;28;20417;-73
2023/03/28 00:39:22;;;;;;;5.82;2.05;;;2.20;98.20;;;;;;5050148;28;20421;-72
2023/03/28 00:41:48;;;;;;;7.27;2.23;;;2.10;98.30;;;;;;5049454;28;20885;-71
2023/03/28 00:44:46;;;;;;;5.15;2.30;;;2.20;98.30;;;;;;5049392;28;20428;-73
2023/03/28 00:47:24;;;;;;;4.25;2.20;;;2.10;98.50;;;;;;5049025;28;20436;-70
2023/03/28 00:49:54;;;;;;;7.25;2.70;;;2.10;98.60;;;;;;5049413;28;20495;-71
2023/03/28 00:52:22;;;;;;;5.38;2.30;;;2.00;98.70;;;;;;5048644;28;20903;-72
2023/03/28 00:54:50;;;;;;;7.13;3.00;;;2.00;98.90;;;;;;5049972;28;20700;-72
2023/03/28 00:57:17;;;;;;;6.55;2.80;;;2.00;99.10;;;;;;5048722;28;20414;-71
2023/03/28 00:59:46;;;;;;;6.60;2.73;;;2.00;99.10;;;;;;5048320;28;20470;-71
2023/03/28 01:02:12;;;;;;;4.88;2.50;;;1.90;99.20;;;;;;5045414;28;20421;-72
2023/03/28 01:04:45;;;;;;;7.05;3.10;;;1.90;99.40;;;;;;5048932;28;20433;-72
2023/03/28 01:07:12;;;;;;;5.65;2.80;;;1.80;99.50;;;;;;5049115;28;20437;-72
2023/03/28 01:09:40;;;;;;;5.43;2.65;;;1.80;99.90;;;;;;5048971;28;20455;-72
2023/03/28 01:12:07;;;;;;;7.60;2.53;;;1.80;99.90;;;;;;5049049;28;21222;-73
2023/03/28 01:14:38;;;;;;;8.27;3.10;;;1.80;99.90;;;;;;5049455;28;20456;-72
2023/03/28 01:17:06;;;;;;;6.63;2.83;;;1.80;99.90;;;;;;5046873;28;20429;-73
2023/03/28 01:19:49;;;;;;;5.93;2.85;;;1.70;99.90;;;;;;5048332;28;20413;-72
2023/03/28 01:22:48;;;;;;;7.55;2.97;;;1.70;99.90;;;;;;5048154;28;20414;-73
2023/03/28 01:25:54;;;;;;;7.18;2.90;;;1.70;99.90;;;;;;5041159;28;20415;-73
2023/03/28 01:28:36;;;;;;;6.95;3.20;;;1.60;99.90;;;;;;5052510;28;20433;-72
2023/03/28 01:31:37;;;;;;;6.80;3.08;;;1.60;99.90;;;;;;5052154;28;20517;-72
2023/03/28 01:34:43;;;;;;;4.85;2.67;;;1.60;99.90;;;;;;5046669;28;20436;-72
2023/03/28 01:37:22;;;;;;;6.60;3.17;;;1.60;99.90;;;;;;5051090;28;20413;-72
2023/03/28 01:40:16;;;;;;;6.23;2.97;;;1.60;99.90;;;;;;5052407;28;20925;-72
2023/03/28 01:42:54;;;;;;;7.88;2.90;;;1.60;99.90;;;;;;5051885;28;20418;-72
2023/03/28 01:45:27;;;;;;;5.45;2.78;;;1.50;99.90;;;;;;5049973;28;21006;-72
2023/03/28 01:48:02;;;;;;;4.22;2.85;;;1.50;99.90;;;;;;5051563;28;20424;-72
2023/03/28 01:50:34;;;;;;;6.88;3.60;;;1.60;99.90;;;;;;5051565;28;20441;-72
2023/03/28 01:53:09;;;;;;;5.18;2.90;;;1.50;99.90;;;;;;5049006;28;20922;-71
2023/03/28 01:55:39;;;;;;;6.82;2.92;;;1.50;99.90;;;;;;5049146;28;21167;-71
2023/03/28 01:58:13;;;;;;;7.95;3.00;;;1.50;99.90;;;;;;5048525;28;20805;-70
2023/03/28 02:00:44;;;;;;;6.68;3.10;;;1.50;99.90;;;;;;5046787;28;20875;-71
2023/03/28 02:03:17;;;;;;;5.40;2.90;;;1.40;99.90;;;;;;5047303;28;20425;-73
2023/03/28 02:05:47;;;;;;;6.18;2.85;;;1.40;99.90;;;;;;5047371;28;20421;-73
2023/03/28 02:08:17;;;;;;;5.57;2.88;;;1.40;99.90;;;;;;5043766;28;20409;-73
2023/03/28 02:10:46;;;;;;;7.03;2.77;;;1.40;99.90;;;;;;5048432;28;20507;-71
2023/03/28 02:13:17;;;;;;;6.75;2.97;;;1.40;99.90;;;;;;5046580;28;20835;-69
2023/03/28 02:15:48;;;;;;;5.50;2.70;;;1.40;99.90;;;;;;5047739;28;20436;-71
2023/03/28 02:18:20;;;;;;;5.05;2.85;;;1.40;99.90;;;;;;5048154;28;20413;-73
2023/03/28 02:20:52;;;;;;;7.45;2.95;;;1.40;99.90;;;;;;5047183;28;20510;-71
2023/03/28 02:23:24;;;;;;;6.28;2.55;;;1.40;99.90;;;;;;5047115;28;20413;-72
2023/03/28 02:25:51;;;;;;;3.72;2.63;;;1.40;99.90;;;;;;5047791;28;21003;-73
2023/03/28 02:28:19;;;;;;;9.00;2.90;;;1.40;99.90;;;;;;5047586;28;21155;-71
2023/03/28 02:30:48;;;;;;;8.00;3.58;;;1.40;99.90;;;;;;5045256;28;22397;-71
2023/03/28 02:33:37;;;;;;;5.00;2.70;;;1.30;99.90;;;;;;5047178;28;20428;-70
2023/03/28 02:36:21;;;;;;;5.72;3.03;;;1.40;99.90;;;;;;5046612;28;20410;-71
2023/03/28 02:38:57;;;;;;;5.20;2.80;;;1.40;99.90;;;;;;5042673;28;20421;-70
2023/03/28 02:41:33;;;;;;;5.17;2.90;;;1.30;99.90;;;;;;5048576;28;20421;-71
2023/03/28 02:44:10;;;;;;;6.90;3.58;;;1.30;99.90;;;;;;5038260;28;20431;-73
2023/03/28 02:46:49;;;;;;;6.53;2.85;;;1.20;99.90;;;;;;5047496;28;20428;-71
2023/03/28 02:49:31;;;;;;;6.65;2.90;;;1.20;99.90;;;;;;5046894;28;20413;-72
2023/03/28 02:52:10;;;;;;;6.63;2.75;;;1.20;99.90;;;;;;5046978;28;20447;-72
2023/03/28 02:54:47;;;;;;;7.68;3.10;;;1.20;99.90;;;;;;5047247;28;20429;-72
2023/03/28 02:57:23;;;;;;;7.75;2.80;;;1.20;99.90;;;;;;5046784;28;20479;-70
2023/03/28 02:59:56;;;;;;;5.60;2.72;;;1.20;99.90;;;;;;5047629;28;20417;-71
2023/03/28 03:02:23;;;;;;;6.85;2.70;;;1.20;99.90;;;;;;5047009;28;20425;-71
2023/03/28 03:04:51;;;;;;;6.55;2.40;;;1.20;99.90;;;;;;5046466;28;20996;-69
2023/03/28 03:07:17;;;;;;;6.20;3.25;;;1.20;99.90;;;;;;5049945;28;20436;-70
2023/03/28 03:09:46;;;;;;;6.40;2.40;;;1.10;99.90;;;;;;5049555;28;20691;-71
2023/03/28 03:12:13;;;;;;;5.35;2.70;;;1.10;99.90;;;;;;5045227;28;20431;-72
2023/03/28 03:14:40;;;;;;;6.05;2.50;;;1.10;99.90;;;;;;5045077;28;20428;-73
2023/03/28 03:17:07;;;;;;;5.43;2.75;;;1.10;99.90;;;;;;5047329;28;20471;-71
2023/03/28 03:19:35;;;;;;;8.18;2.92;;;1.10;99.90;;;;;;5045951;28;20433;-70
2023/03/28 03:22:02;;;;;;;5.32;2.80;;;1.10;99.90;;;;;;5047468;28;20422;-70
2023/03/28 03:24:29;;;;;;;4.43;2.33;;;1.10;99.90;;;;;;5045656;28;20908;-71
2023/03/28 03:26:57;;;;;;;6.32;2.70;;;1.10;99.90;;;;;;5044618;28;20792;-70
2023/03/28 03:29:23;;;;;;;6.80;3.00;;;1.00;99.90;;;;;;5047216;28;20483;-72
2023/03/28 03:31:50;;;;;;;6.50;2.90;;;1.00;99.90;;;;;;5045887;28;20432;-70
2023/03/28 03:34:17;;;;;;;4.40;2.80;;;1.00;99.90;;;;;;5046830;28;20436;-70
2023/03/28 03:36:44;;;;;;;5.72;2.65;;;1.00;99.90;;;;;;5050165;28;20417;-72
2023/03/28 03:39:10;;;;;;;5.97;2.50;;;1.00;99.90;;;;;;5043582;28;20425;-72
2023/03/28 03:41:37;;;;;;;5.97;2.80;;;1.00;99.90;;;;;;5050641;28;20501;-73
2023/03/28 03:44:05;;;;;;;5.10;2.60;;;1.00;99.90;;;;;;5048795;28;20500;-72
2023/03/28 03:46:32;;;;;;;5.28;2.95;;;1.00;99.90;;;;;;5050600;28;20443;-73
2023/03/28 03:48:59;;;;;;;7.70;2.80;;;1.00;99.90;;;;;;5050486;28;20428;-73
2023/03/28 03:51:26;;;;;;;7.53;3.10;;;1.10;99.90;;;;;;5051095;28;20486;-72
2023/03/28 03:53:52;;;;;;;5.13;2.70;;;1.10;99.90;;;;;;5049285;28;20417;-72
2023/03/28 03:56:20;;;;;;;6.65;2.90;;;1.00;99.90;;;;;;5050058;28;20417;-71
2023/03/28 03:58:46;;;;;;;6.18;3.13;;;1.00;99.90;;;;;;5051151;28;20890;-71
2023/03/28 04:01:14;;;;;;;7.90;3.13;;;1.00;99.90;;;;;;5051507;28;20436;-71
2023/03/28 04:03:42;;;;;;;6.20;3.47;;;1.00;99.90;;;;;;5049884;28;20425;-71
2023/03/28 04:06:09;;;;;;;6.88;3.40;;;1.00;99.90;;;;;;5050132;28;21064;-73
2023/03/28 04:08:36;;;;;;;6.35;3.60;;;1.00;99.90;;;;;;5050210;28;20457;-71
2023/03/28 04:11:03;;;;;;;6.50;3.42;;;1.00;99.90;;;;;;5047700;28;20433;-71
2023/03/28 04:13:29;;;;;;;6.80;3.60;;;1.10;99.90;;;;;;5046602;28;20448;-70
2023/03/28 04:15:56;;;;;;;6.78;3.30;;;1.00;99.90;;;;;;5041450;28;20469;-71
2023/03/28 04:18:24;;;;;;;5.00;3.47;;;1.10;99.90;;;;;;5046573;28;20415;-70
2023/03/28 04:20:55;;;;;;;6.80;3.50;;;1.10;99.90;;;;;;5045960;28;20452;-70
2023/03/28 04:23:24;;;;;;;5.47;3.15;;;1.10;99.90;;;;;;5044809;28;21069;-71
2023/03/28 04:25:54;;;;;;;8.02;3.80;;;1.10;99.90;;;;;;5047429;28;20433;-70
2023/03/28 04:28:23;;;;;;;7.03;3.85;;;1.10;99.90;;;;;;5045811;28;20429;-72
2023/03/28 04:30:53;;;;;;;7.33;3.83;;;1.10;99.90;;;;;;5046180;28;20433;-72
2023/03/28 04:33:23;;;;;;;5.43;3.43;;;1.10;99.90;;;;;;5047849;28;21002;-71
2023/03/28 04:35:58;;;;;;;5.30;3.13;;;1.00;99.90;;;;;;5046414;28;20421;-71
2023/03/28 04:38:27;;;;;;;6.10;3.40;;;1.00;99.90;;;;;;5049412;28;20423;-72
2023/03/28 04:40:56;;;;;;;8.18;3.60;;;1.00;99.90;;;;;;5049201;28;20429;-72
2023/03/28 04:43:24;;;;;;;6.50;3.17;;;1.00;99.90;;;;;;5045910;28;20425;-71
2023/03/28 04:45:51;;;;;;;6.45;3.67;;;1.00;99.90;;;;;;5047287;28;20741;-71
2023/03/28 04:48:18;;;;;;;7.93;3.80;;;1.00;99.90;;;;;;5049665;28;20792;-71
2023/03/28 04:50:44;;;;;;;5.50;3.40;;;1.00;99.90;;;;;;5048760;28;20733;-71
2023/03/28 04:53:12;;;;;;;6.68;3.40;;;1.00;99.90;;;;;;5048842;28;20437;-71
2023/03/28 04:55:39;;;;;;;9.15;4.30;;;0.90;99.90;;;;;;5047843;28;20429;-70
2023/03/28 04:58:06;;;;;;;6.87;4.20;;;1.00;99.90;;;;;;5048614;28;20414;-68
2023/03/28 05:00:35;;;;;;;7.53;4.05;;;0.90;99.90;;;;;;5043645;28;20428;-72
2023/03/28 05:03:03;;;;;;;7.43;4.20;;;0.90;99.90;;;;;;5042094;28;20429;-70
2023/03/28 05:05:30;;;;;;;7.50;4.70;;;0.90;99.90;;;;;;5045521;28;20440;-69
2023/03/28 05:07:58;;;;;;;7.93;3.90;;;0.90;99.90;;;;;;5045746;28;20440;-71
2023/03/28 05:10:26;;;;;;;6.97;4.00;;;0.80;99.90;;;;;;5048188;28;20784;-70
2023/03/28 05:12:53;;;;;;;9.55;3.92;;;0.80;99.90;;;;;;5040609;28;20435;-70
2023/03/28 05:15:20;;;;;;;7.83;4.00;;;0.80;99.90;;;;;;5038655;28;20538;-70
2023/03/28 05:17:46;;;;;;;8.43;3.90;;;0.80;99.90;;;;;;5048602;28;20424;-69
2023/03/28 05:20:15;;;;;;;6.20;3.92;;;0.80;99.90;;;;;;5044445;28;20918;-72
2023/03/28 05:22:42;;;;;;;7.45;4.45;;;0.80;99.90;;;;;;5046368;28;21809;-71
2023/03/28 05:25:10;;;;;;;7.68;4.03;;;0.70;99.90;;;;;;5040839;28;20829;-72
2023/03/28 05:27:38;;;;;;;6.05;4.28;;;0.70;99.90;;;;;;5051963;28;20433;-72
2023/03/28 05:30:06;;;;;;;8.60;4.60;;;0.70;99.90;;;;;;5049174;28;20421;-72
2023/03/28 05:32:33;;;;;;;6.15;4.07;;;0.70;99.90;;;;;;5030551;28;20417;-71
2023/03/28 05:35:00;;;;;;;5.20;4.40;;;0.70;99.90;;;;;;5048278;28;20425;-70
2023/03/28 05:37:27;;;;;;;7.15;4.40;;;0.70;99.90;;;;;;5065796;22;20445;-71
2023/03/28 05:39:54;;;;;;;5.78;4.00;;;0.70;99.90;;;;;;5047161;28;20429;-72
2023/03/28 05:42:20;;;;;;;8.93;4.70;;;0.70;99.90;;;;;;5046053;28;20440;-72
2023/03/28 05:44:49;;;;;;;8.05;4.50;;;0.70;99.90;;;;;;5051401;28;20598;-72
2023/03/28 05:47:16;;;;;;;5.53;4.00;;;0.60;99.90;;;;;;5061123;28;20416;-73
2023/03/28 05:49:43;;;;;;;9.15;4.55;;;0.60;99.90;;;;;;5059334;28;20444;-72
2023/03/28 05:52:09;;;;;;;9.85;4.65;;;0.70;99.90;;;;;;5035195;28;20419;-71
2023/03/28 05:54:36;;;;;;;8.18;4.43;;;0.70;99.90;;;;;;5047653;28;20442;-71
2023/03/28 05:57:03;;;;;;;8.07;4.10;;;0.80;99.90;;;;;;5055719;28;20439;-73
2023/03/28 05:59:31;;;;;;;7.70;4.13;;;0.80;99.90;;;;;;5046455;28;20774;-71
2023/03/28 06:02:00;;;;;;;6.00;4.07;;;0.80;99.90;;;;;;5049578;28;20750;-71
2023/03/28 06:04:27;;;;;;;7.93;4.78;;;0.90;99.90;;;;;;5039285;28;20492;-72
2023/03/28 06:06:54;;;;;;;7.18;4.40;;;1.00;99.90;;;;;;5032058;28;20437;-71
2023/03/28 06:09:21;;;;;;;8.15;4.88;;;1.00;99.90;;;;;;5044811;28;20425;-71
2023/03/28 06:11:47;;;;;;;8.95;4.40;;;1.10;99.90;;;;;;5033440;28;20431;-71
2023/03/28 06:14:14;;;;;;;9.23;4.53;;;1.10;99.90;;;;;;5064624;28;20415;-71
2023/03/28 06:16:42;;;;;;;6.90;4.40;;;1.20;99.90;;;;;;5044485;28;20495;-71
2023/03/28 06:19:10;;;;;;;6.20;3.73;;;1.20;99.90;;;;;;5035797;28;20687;-71
2023/03/28 06:21:37;;;;;;;8.52;4.43;;;1.30;99.90;;;;;;5049737;28;20413;-70
2023/03/28 06:24:04;;;;;;;7.10;4.37;;;1.40;99.90;;;;;;5046357;28;20439;-71
2023/03/28 06:26:31;;;;;;;6.87;4.30;;;1.40;99.90;;;;;;5052321;28;20431;-71
2023/03/28 06:28:58;;;;;;;10.82;5.10;;;1.50;99.90;;;;;;5044707;28;20435;-71
2023/03/28 06:31:24;;;;;;;8.60;4.88;;;1.60;99.90;;;;;;5054655;28;20471;-71
2023/03/28 06:33:52;;;;;;;6.18;4.40;;;1.70;99.90;;;;;;5054465;28;20990;-71
2023/03/28 06:36:20;;;;;;;6.93;4.63;;;1.70;99.90;;;;;;5044881;28;20582;-73
2023/03/28 06:38:48;;;;;;;8.00;4.82;;;1.80;99.90;;;;;;5030131;28;20885;-72
2023/03/28 06:41:15;;;;;;;9.53;5.03;;;1.90;99.90;;;;;;5050225;28;20526;-73
2023/03/28 06:43:42;;;;;;;6.93;5.30;;;2.00;99.90;;;;;;5061974;28;20411;-72
2023/03/28 06:46:09;;;;;;;6.28;5.07;;;2.10;99.90;;;;;;5033385;28;20429;-71
2023/03/28 06:48:36;;;;;;;9.88;4.80;;;2.10;99.90;;;;;;5049786;28;20431;-71
2023/03/28 06:51:04;;;;;;;8.17;4.80;;;2.20;99.90;;;;;;5063373;28;20781;-72
2023/03/28 06:53:34;;;;;;;11.27;5.18;;;2.30;99.90;;;;;;5042768;28;20518;-71
2023/03/28 06:56:01;;;;;;;7.50;4.82;;;2.40;99.90;;;;;;5047270;28;20506;-73
2023/03/28 06:58:28;;;;;;;9.23;5.03;;;2.50;99.10;;;;;;5042974;28;20411;-73
2023/03/28 07:00:55;;;;;;;7.90;4.50;;;2.40;98.40;;;;;;5048008;28;20865;-72
2023/03/28 07:03:21;;;;;;;6.40;4.05;;;2.50;98.30;;;;;;5046826;28;20523;-76
2023/03/28 07:05:48;;;;;;;6.93;4.50;;;2.50;98.20;;;;;;5025437;28;20451;-73
2023/03/28 07:08:15;;;;;;;8.48;4.40;;;2.60;98.20;;;;;;5038287;28;20536;-73
2023/03/28 07:10:43;;;;;;;6.05;4.07;;;2.70;98.80;;;;;;5045012;28;20433;-73
2023/03/28 07:13:11;;;;;;;6.80;4.50;;;2.80;98.10;;;;;;5036335;28;20425;-73
2023/03/28 07:15:38;;;;;;;10.45;4.60;;;2.80;97.50;;;;;;5034437;28;20417;-73
2023/03/28 07:18:09;;;;;;;8.15;4.97;;;2.90;97.80;;;;;;5032448;28;20517;-73
2023/03/28 07:20:38;;;;;;;9.25;4.57;;;3.00;97.60;;;;;;5027414;28;20896;-73
2023/03/28 07:23:04;;;;;;;8.82;5.05;;;3.10;97.30;;;;;;5027958;28;20419;-73
2023/03/28 07:25:32;;;;;;;9.38;4.90;;;3.30;97.10;;;;;;5048826;28;20486;-73
2023/03/28 07:28:00;;;;;;;5.68;4.20;;;3.40;96.50;;;;;;5032236;28;20833;-73
2023/03/28 07:30:27;;;;;;;9.00;4.65;;;3.50;95.70;;;;;;5026781;28;20904;-74
2023/03/28 07:32:54;;;;;;;7.90;4.90;;;3.60;95.80;;;;;;5030414;28;20418;-73
2023/03/28 07:35:21;;;;;;;7.40;4.30;;;3.80;95.80;;;;;;5043792;28;20430;-73
2023/03/28 07:37:47;;;;;;;7.13;4.80;;;4.00;95.40;;;;;;5045756;28;20415;-73
2023/03/28 07:40:15;;;;;;;6.95;4.10;;;4.10;94.30;;;;;;5030186;28;20990;-71
2023/03/28 07:42:42;;;;;;;7.83;4.40;;;4.30;92.80;;;;;;5046749;28;20989;-73
2023/03/28 07:45:11;;;;;;;8.55;4.60;;;4.40;92.70;;;;;;5044408;28;20432;-77
2023/03/28 07:47:38;;;;;;;5.75;4.05;;;4.60;92.60;;;;;;5027422;28;20419;-73
2023/03/28 07:50:05;;;;;;;7.70;4.40;;;4.70;92.50;;;;;;5057772;28;20442;-72
2023/03/28 07:52:32;;;;;;;7.15;4.35;;;4.90;92.10;;;;;;5024959;28;20918;-73
2023/03/28 07:54:59;;;;;;;7.22;4.20;;;5.10;91.40;;;;;;5045014;28;20440;-73
2023/03/28 07:57:26;;;;;;;8.85;4.53;;;5.20;90.90;;;;;;5044226;28;20510;-74
2023/03/28 07:59:54;;;;;;;8.10;4.80;;;5.30;90.90;;;;;;5039066;28;20424;-73
2023/03/28 08:02:22;;;;;;;7.13;4.38;;;5.40;90.50;;;;;;5033160;28;20453;-73
2023/03/28 08:04:52;;;;;;;6.32;4.00;;;5.50;89.70;;;;;;5033812;28;20434;-74
2023/03/28 08:07:19;;;;;;;7.35;3.70;;;5.60;90.10;;;;;;5027418;28;20419;-73
2023/03/28 08:09:46;;;;;;;5.80;3.83;;;5.70;89.40;;;;;;5041482;28;20543;-73
2023/03/28 08:12:12;;;;;;;7.32;4.03;;;5.90;87.90;;;;;;5034711;28;20506;-75
2023/03/28 08:14:40;;;;;;;6.68;4.20;;;5.90;85.10;;;;;;5041897;28;20966;-72
2023/03/28 08:17:06;;;;;;;8.38;3.70;;;6.00;85.40;;;;;;5047615;28;20548;-74
2023/03/28 08:19:34;;;;;;;6.63;4.00;;;6.10;83.60;;;;;;5059865;28;20738;-74
2023/03/28 08:22:02;;;;;;;7.63;4.10;;;6.20;84.00;;;;;;5036167;28;20423;-75
2023/03/28 08:24:29;;;;;;;9.02;3.90;;;6.40;84.00;;;;;;5044063;28;20427;-72
2023/03/28 08:26:56;;;;;;;6.70;3.90;;;6.70;81.70;;;;;;5053398;28;20888;-74
2023/03/28 08:29:23;;;;;;;6.70;3.80;;;6.80;79.30;;;;;;5032941;28;20946;-74
2023/03/28 08:31:50;;;;;;;7.33;3.50;;;6.90;80.00;;;;;;5035585;28;20465;-73
2023/03/28 08:34:16;;;;;;;6.07;3.40;;;7.10;77.80;;;;;;5067660;28;20514;-72
2023/03/28 08:36:44;;;;;;;6.40;3.90;;;7.20;75.60;;;;;;5037509;28;20436;-71
2023/03/28 08:39:11;;;;;;;7.90;3.15;;;7.30;74.50;;;;;;5045618;28;20510;-73
2023/03/28 08:42:08;;;;;;;5.60;3.20;;;7.40;73.30;;;;;;5046331;28;20922;-73
2023/03/28 08:44:58;;;;;;;5.35;3.10;;;7.50;73.20;;;;;;5034149;28;20455;-73
2023/03/28 08:47:29;;;;;;;6.63;3.10;;;7.60;72.30;;;;;;5054614;28;20923;-71
2023/03/28 08:50:01;;;;;;;5.03;2.60;;;7.60;71.90;;;;;;5053933;28;20549;-72
2023/03/28 08:52:29;;;;;;;5.07;2.90;;;7.80;71.90;;;;;;5029038;28;20436;-73
2023/03/28 08:55:00;;;;;;;6.40;2.83;;;8.10;68.20;;;;;;5045618;28;20446;-73
2023/03/28 08:57:29;;;;;;;5.07;2.95;;;8.40;66.90;;;;;;5048952;28;20431;-73
2023/03/28 09:00:00;;;;;;;5.22;2.55;;;8.60;67.00;;;;;;5027650;28;20754;-73
2023/03/28 09:02:29;;;;;;;6.38;2.20;;;8.80;63.60;;;;;;5044320;28;20549;-73
2023/03/28 09:04:58;;;;;;;6.88;2.90;;;8.90;57.60;;;;;;5039027;28;20434;-73
2023/03/28 09:07:34;;;;;;;6.37;2.83;;;8.90;57.20;;;;;;5035142;28;20435;-73
2023/03/28 09:10:12;;;;;;;5.35;2.97;;;9.00;55.50;;;;;;5044537;28;20440;-74
2023/03/28 09:12:50;;;;;;;4.85;3.25;;;9.00;53.90;;;;;;5046027;28;20434;-73
2023/03/28 09:15:38;;;;;;;5.03;2.88;;;8.70;53.60;;;;;;5034349;28;20683;-73
2023/03/28 09:18:30;;;;;;;5.10;2.40;;;8.50;55.40;;;;;;5040867;28;20422;-74
2023/03/28 09:21:02;;;;;;;4.43;2.03;;;8.30;55.70;;;;;;5054435;28;20410;-73
2023/03/28 09:24:07;;;;;;;4.10;1.20;;;8.20;56.30;;;;;;5049130;28;20433;-73
2023/03/28 09:26:36;;;;;;;4.38;1.95;;;8.10;52.60;;;;;;5016116;28;20735;-73
2023/03/28 09:29:07;;;;;;;4.53;1.75;;;8.10;54.90;;;;;;5058415;28;20433;-74
2023/03/28 09:31:40;;;;;;;3.55;1.38;;;8.10;54.20;;;;;;5060684;28;20454;-74
2023/03/28 09:34:07;;;;;;;2.45;1.20;;;8.20;53.50;;;;;;5054574;28;20465;-73
2023/03/28 09:36:42;;;;;;;3.38;1.20;;;8.30;52.30;;;;;;5042694;28;20835;-73
2023/03/28 09:39:18;;;;;;;3.80;1.70;;;8.40;52.30;;;;;;5054058;28;20775;-73
2023/03/28 09:41:53;;;;;;;4.40;2.00;;;8.60;52.80;;;;;;5050056;28;20462;-73
2023/03/28 09:44:30;;;;;;;3.80;1.70;;;8.80;52.30;;;;;;5049338;28;20427;-73
2023/03/28 09:47:00;;;;;;;2.90;1.30;;;9.10;50.80;;;;;;5030010;28;20514;-73
2023/03/28 09:49:27;;;;;;;3.80;1.50;;;9.30;48.50;;;;;;5029309;28;20438;-73
2023/03/28 09:51:55;;;;;;;2.10;1.30;;;9.40;49.30;;;;;;5026834;28;20415;-72
2023/03/28 09:54:29;;;;;;;3.50;1.50;;;9.30;48.30;;;;;;5038272;28;20432;-72
2023/03/28 09:57:00;;;;;;;2.90;1.33;;;9.40;49.20;;;;;;5059553;28;20485;-72
2023/03/28 09:59:28;;;;;;;3.40;1.50;;;9.50;51.20;;;;;;5029479;28;20419;-72
2023/03/28 10:01:56;;;;;;;3.95;1.30;;;9.60;49.00;;;;;;5026742;28;20415;-74
2023/03/28 10:04:33;;;;;;;3.80;1.38;;;9.70;48.90;;;;;;5026721;28;20411;-72
2023/03/28 10:07:27;;;;;;;4.00;1.40;;;9.70;47.20;;;;;;5028178;28;20423;-71
2023/03/28 10:09:57;;;;;;;2.43;0.90;;;9.50;46.30;;;;;;5059971;28;20438;-71
2023/03/28 10:12:30;;;;;;;2.47;1.30;;;9.50;45.70;;;;;;5032748;28;20765;-73
2023/03/28 10:14:57;;;;;;;2.05;1.15;;;9.50;45.90;;;;;;5027767;28;20429;-73
2023/03/28 10:17:28;;;;;;;2.97;1.23;;;9.60;46.70;;;;;;5026695;28;20518;-73
2023/03/28 10:20:00;;;;;;;3.10;1.15;;;9.80;46.30;;;;;;5034573;28;20419;-73
2023/03/28 10:22:31;;;;;;;3.20;1.10;;;9.90;44.50;;;;;;5025344;28;20431;-74
2023/03/28 10:25:00;;;;;;;2.53;0.90;;;9.90;44.00;;;;;;5041955;28;20546;-71
2023/03/28 10:27:31;;;;;;;3.97;1.50;;;9.90;43.40;;;;;;5060239;28;20435;-72
2023/03/28 10:30:07;;;;;;;3.97;1.73;;;9.70;44.80;;;;;;5044625;28;20509;-73
2023/03/28 10:32:35;;;;;;;1.85;1.10;;;9.60;45.80;;;;;;5026220;28;20443;-74
2023/03/28 10:35:06;;;;;;;3.00;1.33;;;9.50;45.70;;;;;;5025080;28;20901;-71
2023/03/28 10:37:34;;;;;;;4.50;1.30;;;9.60;45.60;;;;;;5033529;28;20444;-73
2023/03/28 10:40:05;;;;;;;3.40;1.30;;;9.70;45.80;;;;;;5050725;28;20435;-73
2023/03/28 10:42:42;;;;;;;3.38;1.35;;;10.00;46.40;;;;;;5045201;28;20435;-71
2023/03/28 10:45:20;;;;;;;3.20;1.20;;;10.20;43.80;;;;;;5055594;28;20453;-73
2023/03/28 10:47:47;;;;;;;2.70;1.00;;;10.30;44.40;;;;;;5027723;28;20433;-72
2023/03/28 10:50:24;;;;;;;1.67;1.15;;;10.40;43.50;;;;;;5022816;28;20517;-74
2023/03/28 10:52:54;;;;;;;2.92;1.30;;;10.50;44.20;;;;;;5035839;28;20444;-71
2023/03/28 10:55:26;;;;;;;3.20;1.10;;;10.60;42.30;;;;;;5024311;28;20819;-70
2023/03/28 10:58:03;;;;;;;3.60;1.40;;;10.60;42.30;;;;;;5031036;28;20438;-70
2023/03/28 11:00:34;;;;;;;1.95;0.90;;;10.70;43.20;;;;;;5031420;28;22158;-71
2023/03/28 11:03:18;;;;;;;2.38;1.10;;;10.80;41.80;;;;;;5034928;28;20693;-70
2023/03/28 11:05:52;;;;;;;2.97;1.10;;;11.00;42.00;;;;;;5032216;28;20767;-70
2023/03/28 11:08:34;;;;;;;2.65;1.00;;;11.00;40.60;;;;;;5033060;28;20438;-71
2023/03/28 11:11:13;;;;;;;3.20;1.13;;;11.00;39.50;;;;;;5032376;28;20437;-70
2023/03/28 11:13:53;;;;;;;2.90;1.10;;;10.90;39.60;;;;;;5024930;28;20492;-72
2023/03/28 11:16:38;;;;;;;2.10;0.98;;;10.70;39.40;;;;;;5035193;28;20944;-69
2023/03/28 11:19:15;;;;;;;2.85;1.13;;;10.70;40.10;;;;;;5035019;28;20885;-70
2023/03/28 11:21:52;;;;;;;1.63;1.00;;;10.80;40.00;;;;;;5028371;28;20419;-71
2023/03/28 11:24:28;;;;;;;1.80;0.87;;;10.80;39.30;;;;;;5023403;28;20431;-70
2023/03/28 11:27:05;;;;;;;2.50;1.20;;;10.70;39.60;;;;;;5047648;28;20408;-71
2023/03/28 11:29:38;;;;;;;1.57;0.80;;;10.70;40.00;;;;;;5033086;28;20514;-70
2023/03/28 11:32:13;;;;;;;3.10;1.40;;;10.80;40.40;;;;;;5030134;28;20458;-70
2023/03/28 11:34:46;;;;;;;2.07;0.80;;;10.80;39.40;;;;;;5032087;28;20459;-71
2023/03/28 11:37:19;;;;;;;3.42;1.60;;;10.90;40.40;;;;;;5072502;22;20419;-73
2023/03/28 11:39:52;;;;;;;2.00;1.00;;;11.20;41.30;;;;;;5068515;28;20796;-72
2023/03/28 11:42:27;;;;;;;2.10;1.20;;;11.40;37.90;;;;;;5069614;28;20561;-72
2023/03/28 11:45:02;;;;;;;4.70;1.10;;;11.30;38.30;;;;;;5066388;28;20432;-72
2023/03/28 11:47:32;;;;;;;2.85;1.60;;;10.80;38.80;;;;;;5064678;28;20439;-72
2023/03/28 11:50:02;;;;;;;3.10;1.63;;;10.50;40.20;;;;;;5073616;28;20923;-69
2023/03/28 11:52:36;;;;;;;2.88;1.40;;;10.40;40.40;;;;;;5050479;28;20526;-70
2023/03/28 11:55:14;;;;;;;2.55;1.30;;;10.30;41.10;;;;;;5065679;28;20428;-70
2023/03/28 11:57:50;;;;;;;3.03;1.25;;;10.30;41.50;;;;;;5071318;28;20435;-70
2023/03/28 12:00:25;;;;;;;4.40;1.52;;;10.40;40.80;;;;;;5086767;28;20425;-70
2023/03/28 12:02:58;;;;;;;4.22;1.80;;;10.50;40.60;;;;;;5069710;28;20462;-72
2023/03/28 12:05:31;;;;;;;4.70;1.40;;;10.70;41.00;;;;;;5080181;28;20439;-70
2023/03/28 12:08:04;;;;;;;2.42;1.27;;;10.90;39.60;;;;;;5069701;28;20437;-70
2023/03/28 12:10:35;;;;;;;4.03;1.15;;;11.00;39.30;;;;;;5065551;28;20431;-70
2023/03/28 12:13:09;;;;;;;2.28;1.40;;;11.20;38.50;;;;;;5072625;28;20408;-70
2023/03/28 12:15:45;;;;;;;2.97;1.30;;;11.50;39.90;;;;;;5080480;28;20424;-70
2023/03/28 12:18:19;;;;;;;4.00;1.40;;;11.80;37.70;;;;;;5076565;28;20492;-70
2023/03/28 12:20:54;;;;;;;2.73;1.30;;;11.80;38.10;;;;;;5068971;28;20427;-75
2023/03/28 12:23:29;;;;;;;3.22;1.50;;;12.00;40.30;;;;;;5052907;28;20425;-71
2023/03/28 12:26:06;;;;;;;2.97;1.70;;;12.20;39.90;;;;;;5060223;28;20427;-70
2023/03/28 12:28:40;;;;;;;4.10;1.70;;;12.40;39.90;;;;;;5069155;28;20940;-71
2023/03/28 12:31:13;;;;;;;2.45;1.30;;;12.50;37.80;;;;;;5064055;28;20442;-72
2023/03/28 12:33:52;;;;;;;3.42;1.50;;;12.70;38.00;;;;;;5070382;28;20487;-72
2023/03/28 12:36:24;;;;;;;3.85;1.60;;;13.00;37.80;;;;;;5058245;28;20429;-75
2023/03/28 12:38:56;;;;;;;4.13;1.50;;;13.00;37.40;;;;;;5057159;28;20471;-67
2023/03/28 12:41:26;;;;;;;2.90;1.30;;;12.90;37.80;;;;;;5071043;28;20422;-69
2023/03/28 12:43:58;;;;;;;2.83;1.58;;;12.70;37.20;;;;;;5072382;28;20431;-72
2023/03/28 12:46:29;;;;;;;4.22;1.80;;;12.50;37.40;;;;;;5081124;28;20599;-74
2023/03/28 12:48:59;;;;;;;1.90;1.50;;;12.50;38.40;;;;;;5079365;28;20939;-73
2023/03/28 12:51:32;;;;;;;3.90;1.57;;;12.80;38.40;;;;;;5081796;28;20428;-71
2023/03/28 12:54:07;;;;;;;3.00;1.50;;;13.20;37.70;;;;;;5089838;28;20557;-72
2023/03/28 12:56:34;;;;;;;3.75;1.90;;;13.70;36.30;;;;;;5077086;28;20450;-69
2023/03/28 12:59:31;;;;;;;2.35;1.50;;;13.80;35.50;;;;;;5085879;28;20565;-69
2023/03/28 13:02:00;;;;;;;3.50;1.50;;;13.90;35.10;;;;;;5069851;28;20523;-70
2023/03/28 13:04:31;;;;;;;2.67;1.50;;;13.70;34.00;;;;;;5078075;28;20417;-69
2023/03/28 13:07:07;;;;;;;2.65;1.55;;;13.60;35.00;;;;;;5073738;28;20433;-69
2023/03/28 13:09:51;;;;;;;2.35;1.30;;;13.40;35.20;;;;;;5075310;28;20412;-68
2023/03/28 13:12:29;;;;;;;2.83;1.77;;;13.40;35.40;;;;;;5076313;28;20793;-69
2023/03/28 13:15:02;;;;;;;3.08;1.60;;;13.40;35.70;;;;;;5088608;28;20419;-70
2023/03/28 13:17:32;;;;;;;2.78;1.65;;;13.20;34.80;;;;;;5098818;28;20410;-71